createdAt,value
2023-05-13T00:01:07.325Z,100803.93
2023-05-13T00:03:34.626Z,100805.40
2023-05-13T00:06:01.640Z,100805.74
2023-05-13T00:08:29.156Z,100810.50
2023-05-13T00:10:55.983Z,100811.69
2023-05-13T00:13:23.090Z,100813.82
2023-05-13T00:15:50.576Z,100812.41
2023-05-13T00:18:17.647Z,100819.53
2023-05-13T00:20:44.652Z,100817.71
2023-05-13T00:23:17.022Z,100817.85
2023-05-13T00:25:49.253Z,100819.18
2023-05-13T00:28:17.034Z,100816.52
2023-05-13T00:30:45.117Z,100820.94
2023-05-13T00:33:12.371Z,100823.95
2023-05-13T00:35:40.101Z,100822.94
2023-05-13T00:38:07.294Z,100820.59
2023-05-13T00:40:38.952Z,100822.23
2023-05-13T00:43:05.854Z,100823.80
2023-05-13T00:45:33.216Z,100826.86
2023-05-13T00:48:00.216Z,100824.37
2023-05-13T00:50:27.162Z,100823.73
2023-05-13T00:52:53.957Z,100822.06
2023-05-13T00:55:26.210Z,100822.83
2023-05-13T00:57:52.959Z,100820.98
2023-05-13T01:00:25.322Z,100822.34
2023-05-13T01:03:17.333Z,100824.25
2023-05-13T01:06:01.334Z,100824.27
2023-05-13T01:09:08.112Z,100823.23
2023-05-13T01:11:39.516Z,100819.55
2023-05-13T01:14:12.450Z,100816.85
2023-05-13T01:16:45.818Z,100818.77
2023-05-13T01:19:18.281Z,100815.60
2023-05-13T01:21:52.227Z,100814.23
2023-05-13T01:26:46.447Z,100812.84
2023-05-13T01:29:13.414Z,100818.48
2023-05-13T01:31:40.671Z,100819.48
2023-05-13T01:34:09.936Z,100819.26
2023-05-13T01:36:39.105Z,100818.30
2023-05-13T01:39:07.205Z,100818.14
2023-05-13T01:41:34.388Z,100819.84
2023-05-13T01:44:01.708Z,100823.56
2023-05-13T01:46:29.045Z,100823.09
2023-05-13T01:48:55.890Z,100830.09
2023-05-13T01:51:22.983Z,100831.54
2023-05-13T01:53:50.263Z,100829.77
2023-05-13T01:56:23.148Z,100832.31
2023-05-13T01:58:50.563Z,100829.17
2023-05-13T02:01:17.465Z,100830.83
2023-05-13T02:03:49.578Z,100831.48
2023-05-13T02:06:16.622Z,100833.73
2023-05-13T02:08:48.656Z,100827.02
2023-05-13T02:11:16.363Z,100826.30
2023-05-13T02:13:43.218Z,100826.77
2023-05-13T02:16:16.513Z,100830.23
2023-05-13T02:18:43.619Z,100831.02
2023-05-13T02:21:13.473Z,100831.95
2023-05-13T02:23:46.721Z,100830.84
2023-05-13T02:26:13.460Z,100835.81
2023-05-13T02:28:40.290Z,100834.81
2023-05-13T02:31:12.570Z,100831.56
2023-05-13T02:33:40.729Z,100835.23
2023-05-13T02:36:09.236Z,100836.44
2023-05-13T02:38:36.511Z,100832.91
2023-05-13T02:41:05.049Z,100832.65
2023-05-13T02:43:32.452Z,100833.09
2023-05-13T02:46:08.407Z,100836.23
2023-05-13T02:48:36.772Z,100838.11
2023-05-13T02:51:03.587Z,100836.73
2023-05-13T02:53:31.030Z,100837.92
2023-05-13T02:56:01.419Z,100839.19
2023-05-13T02:58:28.533Z,100848.32
2023-05-13T03:00:55.551Z,100845.69
2023-05-13T03:03:24.117Z,100847.81
2023-05-13T03:05:51.219Z,100851.45
2023-05-13T03:08:23.852Z,100853.53
2023-05-13T03:10:51.278Z,100854.20
2023-05-13T03:13:18.284Z,100861.61
2023-05-13T03:15:45.252Z,100859.98
2023-05-13T03:18:20.045Z,100861.53
2023-05-13T03:20:47.006Z,100859.60
2023-05-13T03:23:13.806Z,100859.61
2023-05-13T03:25:42.233Z,100861.27
2023-05-13T03:28:09.804Z,100863.98
2023-05-13T03:30:38.947Z,100861.86
2023-05-13T03:33:09.340Z,100867.47
2023-05-13T03:35:36.687Z,100867.13
2023-05-13T03:38:04.108Z,100863.67
2023-05-13T03:40:32.626Z,100867.48
2023-05-13T03:43:00.154Z,100870.70
2023-05-13T03:45:28.270Z,100866.74
2023-05-13T03:47:57.298Z,100864.95
2023-05-13T03:50:24.797Z,100866.21
2023-05-13T03:52:52.661Z,100866.45
2023-05-13T03:55:19.771Z,100871.55
2023-05-13T03:57:47.767Z,100873.13
2023-05-13T04:00:15.986Z,100873.34
2023-05-13T04:02:43.770Z,100877.14
2023-05-13T04:05:13.539Z,100879.39
2023-05-13T04:07:40.841Z,100877.02
2023-05-13T04:10:15.401Z,100877.22
2023-05-13T04:12:43.060Z,100878.98
2023-05-13T04:15:10.224Z,100880.88
2023-05-13T04:17:37.063Z,100884.11
2023-05-13T04:20:05.055Z,100886.70
2023-05-13T04:22:33.914Z,100887.73
2023-05-13T04:25:00.897Z,100895.28
2023-05-13T04:27:27.875Z,100892.05
2023-05-13T04:30:05.384Z,100896.08
2023-05-13T04:32:33.926Z,100894.83
2023-05-13T04:35:01.422Z,100891.55
2023-05-13T04:37:30.484Z,100894.98
2023-05-13T04:40:00.381Z,100893.81
2023-05-13T04:42:27.587Z,100890.66
2023-05-13T04:44:54.638Z,100886.68
2023-05-13T04:47:22.163Z,100887.55
2023-05-13T04:49:48.992Z,100888.80
2023-05-13T04:52:21.220Z,100891.32
2023-05-13T04:54:48.972Z,100887.28
2023-05-13T04:57:16.823Z,100882.09
2023-05-13T04:59:43.738Z,100884.61
2023-05-13T05:02:10.852Z,100883.19
2023-05-13T05:04:38.416Z,100884.65
2023-05-13T05:07:11.479Z,100892.92
2023-05-13T05:09:38.501Z,100888.85
2023-05-13T05:12:06.183Z,100887.44
2023-05-13T05:14:34.826Z,100882.41
2023-05-13T05:17:02.060Z,100881.59
2023-05-13T05:19:29.888Z,100883.52
2023-05-13T05:21:57.914Z,100881.72
2023-05-13T05:24:25.523Z,100879.94
2023-05-13T05:26:53.120Z,100879.88
2023-05-13T05:29:20.323Z,100881.96
2023-05-13T05:31:47.288Z,100882.79
2023-05-13T05:34:14.458Z,100877.92
2023-05-13T05:36:47.931Z,100877.63
2023-05-13T05:39:15.870Z,100874.36
2023-05-13T05:41:43.868Z,100876.30
2023-05-13T05:44:12.911Z,100876.17
2023-05-13T05:46:39.954Z,100878.48
2023-05-13T05:49:07.739Z,100884.45
2023-05-13T05:51:35.057Z,100882.84
2023-05-13T05:54:03.478Z,100882.95
2023-05-13T05:56:30.834Z,100885.30
2023-05-13T05:58:57.738Z,100885.95
2023-05-13T06:01:27.190Z,100886.13
2023-05-13T06:03:55.121Z,100888.44
2023-05-13T06:06:22.099Z,100890.71
2023-05-13T06:08:48.981Z,100889.29
2023-05-13T06:11:16.041Z,100888.54
2023-05-13T06:13:43.775Z,100889.94
2023-05-13T06:16:10.890Z,100888.52
2023-05-13T06:18:38.404Z,100888.96
2023-05-13T06:21:05.570Z,100892.27
2023-05-13T06:23:32.523Z,100892.20
2023-05-13T06:25:59.489Z,100890.61
2023-05-13T06:28:32.147Z,100888.87
2023-05-13T06:30:59.048Z,100891.27
2023-05-13T06:33:26.246Z,100889.27
2023-05-13T06:35:53.197Z,100888.48
2023-05-13T06:38:21.932Z,100888.83
2023-05-13T06:40:50.811Z,100887.68
2023-05-13T06:43:19.075Z,100886.68
2023-05-13T06:45:48.752Z,100885.04
2023-05-13T06:48:16.280Z,100887.30
2023-05-13T06:50:49.277Z,100887.48
2023-05-13T06:53:21.498Z,100885.48
2023-05-13T06:55:48.390Z,100887.63
2023-05-13T06:58:15.661Z,100886.14
2023-05-13T07:00:42.724Z,100885.30
2023-05-13T07:03:09.628Z,100884.27
2023-05-13T07:05:37.004Z,100885.52
2023-05-13T07:08:08.061Z,100888.48
2023-05-13T07:10:35.005Z,100889.02
2023-05-13T07:13:02.380Z,100887.36
2023-05-13T07:15:29.345Z,100889.33
2023-05-13T07:17:56.265Z,100882.83
2023-05-13T07:20:23.417Z,100884.71
2023-05-13T07:22:50.654Z,100881.10
2023-05-13T07:25:18.110Z,100879.50
2023-05-13T07:27:45.016Z,100874.25
2023-05-13T07:30:12.267Z,100873.23
2023-05-13T07:32:39.413Z,100873.87
2023-05-13T07:35:06.911Z,100871.22
2023-05-13T07:37:33.897Z,100864.23
2023-05-13T07:40:00.800Z,100859.89
2023-05-13T07:42:29.565Z,100860.39
2023-05-13T07:44:56.440Z,100854.46
2023-05-13T07:47:23.889Z,100851.11
2023-05-13T07:49:51.509Z,100856.54
2023-05-13T07:52:18.489Z,100852.95
2023-05-13T07:54:45.547Z,100851.47
2023-05-13T07:57:13.600Z,100846.32
2023-05-13T07:59:41.313Z,100846.13
2023-05-13T08:02:09.104Z,100847.35
2023-05-13T08:04:36.185Z,100847.63
2023-05-13T08:07:04.360Z,100844.70
2023-05-13T08:09:31.808Z,100843.14
2023-05-13T08:11:58.630Z,100844.04
2023-05-13T08:14:25.770Z,100840.52
2023-05-13T08:16:52.803Z,100834.89
2023-05-13T08:19:19.916Z,100834.52
2023-05-13T08:21:46.908Z,100830.74
2023-05-13T08:24:13.797Z,100833.47
2023-05-13T08:26:40.721Z,100832.46
2023-05-13T08:29:08.100Z,100835.95
2023-05-13T08:31:34.993Z,100828.42
2023-05-13T08:34:02.412Z,100824.83
2023-05-13T08:36:29.731Z,100824.83
2023-05-13T08:38:56.504Z,100819.77
2023-05-13T08:41:23.406Z,100814.15
2023-05-13T08:43:50.381Z,100813.79
2023-05-13T08:46:17.232Z,100811.39
2023-05-13T08:48:44.447Z,100811.64
2023-05-13T08:51:11.321Z,100811.18
2023-05-13T08:53:38.613Z,100803.56
2023-05-13T08:56:07.607Z,100800.52
2023-05-13T08:58:34.677Z,100801.18
2023-05-13T09:01:02.910Z,100794.36
2023-05-13T09:03:30.774Z,100790.94
2023-05-13T09:06:01.155Z,100792.07
2023-05-13T09:08:28.484Z,100791.52
2023-05-13T09:10:55.380Z,100784.75
2023-05-13T09:13:22.898Z,100781.25
2023-05-13T09:15:50.606Z,100769.88
2023-05-13T09:18:19.130Z,100767.41
2023-05-13T09:20:47.826Z,100762.47
2023-05-13T09:23:15.489Z,100761.08
2023-05-13T09:25:42.546Z,100761.34
2023-05-13T09:28:09.434Z,100758.85
2023-05-13T09:30:39.687Z,100758.68
2023-05-13T09:33:19.138Z,100758.64
2023-05-13T09:35:52.113Z,100749.89
2023-05-13T09:38:25.240Z,100746.04
2023-05-13T09:40:55.765Z,100737.95
2023-05-13T09:43:27.644Z,100734.33
2023-05-13T09:46:03.149Z,100729.42
2023-05-13T09:48:32.209Z,100723.55
2023-05-13T09:50:59.118Z,100725.52
2023-05-13T09:53:27.051Z,100720.55
2023-05-13T09:55:55.707Z,100718.94
2023-05-13T09:58:24.018Z,100715.25
2023-05-13T10:00:51.138Z,100712.40
2023-05-13T10:03:18.859Z,100709.79
2023-05-13T10:05:45.963Z,100707.48
2023-05-13T10:08:14.449Z,100705.34
2023-05-13T10:10:41.866Z,100700.22
2023-05-13T10:13:10.599Z,100698.86
2023-05-13T10:15:48.017Z,100694.38
2023-05-13T10:18:16.092Z,100691.73
2023-05-13T10:20:43.779Z,100693.54
2023-05-13T10:23:16.357Z,100693.13
2023-05-13T10:25:44.257Z,100693.52
2023-05-13T10:28:11.351Z,100688.80
2023-05-13T10:30:38.450Z,100687.42
2023-05-13T10:33:05.741Z,100683.98
2023-05-13T10:35:38.546Z,100684.33
2023-05-13T10:38:10.591Z,100688.98
2023-05-13T10:40:47.648Z,100687.65
2023-05-13T10:43:19.801Z,100687.83
2023-05-13T10:45:50.911Z,100685.79
2023-05-13T10:48:18.285Z,100686.19
2023-05-13T10:50:54.823Z,100685.75
2023-05-13T10:53:27.387Z,100688.70
2023-05-13T10:55:59.089Z,100690.34
2023-05-13T10:58:39.374Z,100690.00
2023-05-13T11:01:14.195Z,100681.60
2023-05-13T11:03:41.617Z,100680.10
2023-05-13T11:06:18.893Z,100677.52
2023-05-13T11:08:54.247Z,100673.05
2023-05-13T11:11:28.924Z,100671.88
2023-05-13T11:14:22.826Z,100677.77
2023-05-13T11:17:04.591Z,100673.58
2023-05-13T11:19:32.181Z,100668.30
2023-05-13T11:22:10.117Z,100668.05
2023-05-13T11:24:55.145Z,100666.00
2023-05-13T11:27:48.154Z,100667.70
2023-05-13T11:30:28.271Z,100666.95
2023-05-13T11:33:02.425Z,100655.47
2023-05-13T11:35:32.187Z,100661.10
2023-05-13T11:38:02.428Z,100657.88
2023-05-13T11:40:31.140Z,100658.88
2023-05-13T11:43:04.497Z,100656.45
2023-05-13T11:45:33.380Z,100653.51
2023-05-13T11:48:17.172Z,100649.37
2023-05-13T11:50:44.395Z,100649.49
2023-05-13T11:53:11.749Z,100645.43
2023-05-13T11:55:39.972Z,100644.81
2023-05-13T11:58:07.251Z,100645.66
2023-05-13T12:00:34.511Z,100645.50
2023-05-13T12:03:02.807Z,100645.29
2023-05-13T12:05:30.746Z,100644.44
2023-05-13T12:07:57.762Z,100637.86
2023-05-13T12:10:25.494Z,100631.48
2023-05-13T12:12:53.555Z,100625.58
2023-05-13T12:15:21.428Z,100633.02
2023-05-13T12:17:48.750Z,100637.95
2023-05-13T12:20:16.584Z,100637.65
2023-05-13T12:22:46.222Z,100632.91
2023-05-13T12:25:35.295Z,100630.04
2023-05-13T12:28:09.675Z,100631.64
2023-05-13T12:30:37.705Z,100628.83
2023-05-13T12:33:06.308Z,100632.66
2023-05-13T12:35:33.839Z,100633.11
2023-05-13T12:38:04.772Z,100631.89
2023-05-13T12:40:31.960Z,100632.66
2023-05-13T12:42:59.288Z,100628.37
2023-05-13T12:45:28.955Z,100626.75
2023-05-13T12:47:56.438Z,100623.12
2023-05-13T12:50:23.923Z,100621.31
2023-05-13T12:52:51.979Z,100619.09
2023-05-13T12:55:18.956Z,100617.15
2023-05-13T12:58:03.138Z,100616.09
2023-05-13T13:00:30.707Z,100610.61
2023-05-13T13:02:57.747Z,100612.09
2023-05-13T13:05:26.227Z,100607.70
2023-05-13T13:07:53.310Z,100612.23
2023-05-13T13:10:20.867Z,100613.95
2023-05-13T13:12:49.672Z,100615.02
2023-05-13T13:15:16.716Z,100612.35
2023-05-13T13:17:43.817Z,100610.09
2023-05-13T13:20:12.076Z,100610.29
2023-05-13T13:22:44.068Z,100609.41
2023-05-13T13:25:11.182Z,100609.30
2023-05-13T13:27:38.327Z,100612.92
2023-05-13T13:30:07.914Z,100606.79
2023-05-13T13:32:35.706Z,100603.39
2023-05-13T13:35:05.119Z,100601.54
2023-05-13T13:37:32.008Z,100603.19
2023-05-13T13:39:59.107Z,100597.04
2023-05-13T13:42:40.299Z,100604.94
2023-05-13T13:45:11.224Z,100601.17
2023-05-13T13:47:39.254Z,100599.30
2023-05-13T13:50:06.457Z,100602.57
2023-05-13T13:52:33.834Z,100602.01
2023-05-13T13:55:06.592Z,100602.65
2023-05-13T13:57:33.638Z,100598.89
2023-05-13T14:00:00.588Z,100598.08
2023-05-13T14:02:27.674Z,100595.45
2023-05-13T14:04:55.167Z,100600.02
2023-05-13T14:07:27.734Z,100599.49
2023-05-13T14:09:54.834Z,100600.27
2023-05-13T14:12:22.010Z,100597.48
2023-05-13T14:14:48.981Z,100598.34
2023-05-13T14:17:15.878Z,100603.43
2023-05-13T14:19:42.655Z,100605.27
2023-05-13T14:22:09.451Z,100603.19
2023-05-13T14:24:36.384Z,100603.57
2023-05-13T14:27:03.555Z,100603.19
2023-05-13T14:29:30.691Z,100601.00
2023-05-13T14:31:59.299Z,100601.96
2023-05-13T14:34:26.337Z,100599.14
2023-05-13T14:36:53.205Z,100601.50
2023-05-13T14:39:20.013Z,100601.84
2023-05-13T14:41:46.992Z,100603.17
2023-05-13T14:44:14.068Z,100603.11
2023-05-13T14:46:41.254Z,100598.85
2023-05-13T14:49:08.373Z,100597.45
2023-05-13T14:51:35.870Z,100602.08
2023-05-13T14:54:02.979Z,100599.50
2023-05-13T14:56:30.156Z,100598.63
2023-05-13T14:58:57.174Z,100599.33
2023-05-13T15:01:24.289Z,100598.45
2023-05-13T15:03:51.375Z,100596.39
2023-05-13T15:06:18.237Z,100599.89
2023-05-13T15:08:45.201Z,100600.97
2023-05-13T15:11:12.743Z,100602.34
2023-05-13T15:13:39.697Z,100596.63
2023-05-13T15:16:06.736Z,100604.09
2023-05-13T15:18:42.265Z,100605.76
2023-05-13T15:21:09.494Z,100605.14
2023-05-13T15:23:36.962Z,100605.63
2023-05-13T15:26:04.145Z,100605.70
2023-05-13T15:28:30.996Z,100609.54
2023-05-13T15:30:58.247Z,100603.70
2023-05-13T15:33:26.370Z,100606.98
2023-05-13T15:35:53.222Z,100612.06
2023-05-13T15:38:20.672Z,100607.77
2023-05-13T15:40:47.663Z,100604.89
2023-05-13T15:43:14.721Z,100606.39
2023-05-13T15:45:41.858Z,100604.52
2023-05-13T15:48:08.977Z,100605.42
2023-05-13T15:50:36.092Z,100605.11
2023-05-13T15:53:03.652Z,100605.13
2023-05-13T15:55:31.565Z,100602.69
2023-05-13T15:57:58.425Z,100603.00
2023-05-13T16:00:25.525Z,100607.01
2023-05-13T16:02:52.725Z,100602.64
2023-05-13T16:05:19.834Z,100605.02
2023-05-13T16:07:46.678Z,100609.44
2023-05-13T16:10:14.915Z,100610.80
2023-05-13T16:12:42.640Z,100608.41
2023-05-13T16:15:11.336Z,100609.57
2023-05-13T16:17:38.649Z,100607.77
2023-05-13T16:20:07.452Z,100609.71
2023-05-13T16:22:37.430Z,100613.45
2023-05-13T16:25:05.667Z,100610.94
2023-05-13T16:27:33.501Z,100615.14
2023-05-13T16:30:01.570Z,100617.02
2023-05-13T16:32:29.020Z,100616.70
2023-05-13T16:34:55.976Z,100614.67
2023-05-13T16:37:22.847Z,100618.41
2023-05-13T16:39:55.078Z,100623.89
2023-05-13T16:42:23.061Z,100625.23
2023-05-13T16:44:49.845Z,100623.79
2023-05-13T16:47:16.734Z,100627.45
2023-05-13T16:49:44.799Z,100632.50
2023-05-13T16:52:11.800Z,100638.23
2023-05-13T16:54:38.712Z,100639.16
2023-05-13T16:57:05.823Z,100641.71
2023-05-13T16:59:37.768Z,100642.58
2023-05-13T17:02:05.995Z,100643.14
2023-05-13T17:04:33.470Z,100640.73
2023-05-13T17:07:05.816Z,100644.13
2023-05-13T17:09:33.014Z,100642.27
2023-05-13T17:11:59.886Z,100643.31
2023-05-13T17:14:26.725Z,100646.27
2023-05-13T17:16:53.801Z,100641.68
2023-05-13T17:19:20.713Z,100644.45
2023-05-13T17:21:47.631Z,100646.96
2023-05-13T17:24:19.827Z,100651.03
2023-05-13T17:26:46.648Z,100649.93
2023-05-13T17:29:13.584Z,100647.21
2023-05-13T17:31:45.640Z,100649.28
2023-05-13T17:34:13.709Z,100646.69
2023-05-13T17:36:40.865Z,100651.77
2023-05-13T17:39:07.802Z,100653.75
2023-05-13T17:41:34.875Z,100656.77
2023-05-13T17:44:01.952Z,100657.96
2023-05-13T17:46:29.293Z,100661.50
2023-05-13T17:48:56.450Z,100663.56
2023-05-13T17:51:23.953Z,100664.39
2023-05-13T17:53:50.836Z,100669.08
2023-05-13T17:56:17.861Z,100671.02
2023-05-13T17:58:44.665Z,100672.80
2023-05-13T18:01:16.898Z,100671.52
2023-05-13T18:03:45.048Z,100673.74
2023-05-13T18:06:12.101Z,100673.70
2023-05-13T18:08:39.412Z,100672.41
2023-05-13T18:11:06.234Z,100679.05
2023-05-13T18:13:35.354Z,100679.75
2023-05-13T18:16:04.119Z,100683.86
2023-05-13T18:18:31.733Z,100679.37
2023-05-13T18:20:59.409Z,100683.98
2023-05-13T18:23:26.258Z,100687.84
2023-05-13T18:25:56.070Z,100685.20
2023-05-13T18:28:23.748Z,100685.08
2023-05-13T18:30:55.944Z,100685.38
2023-05-13T18:33:22.963Z,100688.02
2023-05-13T18:35:51.008Z,100688.70
2023-05-13T18:38:17.901Z,100686.25
2023-05-13T18:40:45.121Z,100684.30
2023-05-13T18:43:17.151Z,100680.05
2023-05-13T18:45:44.148Z,100681.08
2023-05-13T18:48:11.155Z,100680.25
2023-05-13T18:50:38.342Z,100681.67
2023-05-13T18:53:05.640Z,100679.16
2023-05-13T18:55:32.542Z,100679.61
2023-05-13T18:58:04.483Z,100681.03
2023-05-13T19:00:31.815Z,100681.49
2023-05-13T19:03:03.822Z,100681.25
2023-05-13T19:05:30.894Z,100683.17
2023-05-13T19:07:59.913Z,100683.55
2023-05-13T19:10:26.703Z,100684.38
2023-05-13T19:12:53.602Z,100684.00
2023-05-13T19:15:21.057Z,100684.41
2023-05-13T19:17:48.225Z,100680.02
2023-05-13T19:20:15.736Z,100681.11
2023-05-13T19:22:42.938Z,100678.85
2023-05-13T19:25:10.435Z,100677.08
2023-05-13T19:27:37.435Z,100676.23
2023-05-13T19:30:04.945Z,100681.08
2023-05-13T19:32:32.643Z,100677.17
2023-05-13T19:34:59.956Z,100677.12
2023-05-13T19:37:26.844Z,100674.36
2023-05-13T19:39:53.983Z,100680.66
2023-05-13T19:42:21.230Z,100679.76
2023-05-13T19:44:48.312Z,100679.17
2023-05-13T19:47:15.070Z,100677.65
2023-05-13T19:49:42.475Z,100673.81
2023-05-13T19:52:09.374Z,100673.48
2023-05-13T19:54:36.968Z,100671.61
2023-05-13T19:57:04.272Z,100673.45
2023-05-13T19:59:31.210Z,100671.67
2023-05-13T20:01:58.025Z,100670.51
2023-05-13T20:04:25.069Z,100669.72
2023-05-13T20:06:52.486Z,100667.95
2023-05-13T20:09:19.280Z,100663.07
2023-05-13T20:11:51.881Z,100663.47
2023-05-13T20:14:22.416Z,100659.71
2023-05-13T20:16:54.364Z,100660.10
2023-05-13T20:19:26.412Z,100657.11
2023-05-13T20:21:53.334Z,100657.05
2023-05-13T20:24:25.384Z,100659.14
2023-05-13T20:26:52.201Z,100659.44
2023-05-13T20:29:19.043Z,100657.06
2023-05-13T20:31:46.028Z,100658.48
2023-05-13T20:34:12.937Z,100657.05
2023-05-13T20:36:39.932Z,100652.24
2023-05-13T20:39:07.249Z,100655.16
2023-05-13T20:41:34.413Z,100653.84
2023-05-13T20:44:01.319Z,100653.36
2023-05-13T20:46:28.797Z,100654.71
2023-05-13T20:48:55.742Z,100649.48
2023-05-13T20:51:22.758Z,100648.84
2023-05-13T20:53:50.104Z,100652.19
2023-05-13T20:56:16.966Z,100653.90
2023-05-13T20:58:43.762Z,100653.91
2023-05-13T21:01:10.752Z,100657.93
2023-05-13T21:03:37.696Z,100658.00
2023-05-13T21:06:05.242Z,100659.65
2023-05-13T21:08:36.248Z,100657.61
2023-05-13T21:11:03.925Z,100657.96
2023-05-13T21:13:31.700Z,100658.71
2023-05-13T21:16:04.279Z,100656.29
2023-05-13T21:18:32.252Z,100651.69
2023-05-13T21:20:59.249Z,100653.32
2023-05-13T21:23:31.506Z,100653.26
2023-05-13T21:25:58.309Z,100650.67
2023-05-13T21:28:25.132Z,100650.67
2023-05-13T21:30:52.134Z,100653.09
2023-05-13T21:33:18.972Z,100650.77
2023-05-13T21:35:45.813Z,100652.98
2023-05-13T21:38:12.889Z,100649.87
2023-05-13T21:40:39.963Z,100651.54
2023-05-13T21:43:07.025Z,100648.92
2023-05-13T21:45:39.528Z,100645.83
2023-05-13T21:48:06.552Z,100647.77
2023-05-13T21:50:34.286Z,100645.79
2023-05-13T21:53:06.290Z,100643.48
2023-05-13T21:55:34.398Z,100646.13
2023-05-13T21:58:02.479Z,100643.09
2023-05-13T22:00:30.993Z,100641.98
2023-05-13T22:02:59.658Z,100642.76
2023-05-13T22:05:27.722Z,100643.87
2023-05-13T22:07:54.857Z,100644.44
2023-05-13T22:10:22.170Z,100640.55
2023-05-13T22:12:49.698Z,100639.12
2023-05-13T22:15:16.853Z,100639.09
2023-05-13T22:17:43.755Z,100644.91
2023-05-13T22:20:11.547Z,100638.70
2023-05-13T22:22:38.505Z,100634.17
2023-05-13T22:25:05.902Z,100632.73
2023-05-13T22:27:32.909Z,100630.34
2023-05-13T22:29:59.833Z,100629.35
2023-05-13T22:32:26.688Z,100626.78
2023-05-13T22:34:53.744Z,100625.33
2023-05-13T22:37:20.531Z,100619.73
2023-05-13T22:39:47.408Z,100622.30
2023-05-13T22:42:14.275Z,100624.23
2023-05-13T22:44:41.327Z,100622.20
2023-05-13T22:47:08.581Z,100619.78
2023-05-13T22:49:40.656Z,100619.13
2023-05-13T22:52:12.454Z,100619.70
2023-05-13T22:54:39.434Z,100619.36
2023-05-13T22:57:06.390Z,100616.98
2023-05-13T22:59:38.487Z,100627.92
2023-05-13T23:02:05.468Z,100620.29
2023-05-13T23:04:32.610Z,100615.98
2023-05-13T23:06:59.725Z,100617.55
2023-05-13T23:09:26.572Z,100611.58
2023-05-13T23:11:53.978Z,100616.59
2023-05-13T23:14:20.875Z,100620.70
2023-05-13T23:16:47.790Z,100620.54
2023-05-13T23:19:14.826Z,100617.83
2023-05-13T23:21:41.788Z,100620.44
2023-05-13T23:24:08.998Z,100618.11
2023-05-13T23:26:35.964Z,100618.17
2023-05-13T23:29:03.563Z,100616.84
2023-05-13T23:31:30.965Z,100612.58
2023-05-13T23:33:57.886Z,100612.20
2023-05-13T23:36:24.777Z,100608.86
2023-05-13T23:38:51.640Z,100610.20
2023-05-13T23:41:18.874Z,100613.75
2023-05-13T23:43:45.725Z,100617.25
2023-05-13T23:46:12.716Z,100614.10
2023-05-13T23:48:39.980Z,100622.56
2023-05-13T23:51:06.821Z,100619.55
2023-05-13T23:53:34.282Z,100623.86
2023-05-13T23:56:01.446Z,100622.39
2023-05-13T23:58:28.732Z,100622.99
